createdAt,value
2019-04-22T00:01:17.143Z,18.15
2019-04-22T00:03:55.166Z,17.42
2019-04-22T00:06:52.630Z,18.00
2019-04-22T00:09:34.112Z,18.57
2019-04-22T00:12:06.387Z,18.17
2019-04-22T00:14:35.162Z,18.62
2019-04-22T00:17:23.317Z,18.23
2019-04-22T00:19:57.626Z,18.90
2019-04-22T00:22:29.149Z,18.20
2019-04-22T00:25:07.960Z,18.07
2019-04-22T00:30:21.961Z,19.30
2019-04-22T00:33:18.574Z,18.35
2019-04-22T00:35:48.118Z,19.27
2019-04-22T00:38:33.850Z,20.35
2019-04-22T00:41:08.544Z,19.87
2019-04-22T00:43:41.131Z,21.05
2019-04-22T00:46:17.894Z,22.35
2019-04-22T00:49:28.724Z,22.93
2019-04-22T00:51:31.569Z,21.42
2019-04-22T00:54:10.297Z,21.48
2019-04-22T00:56:40.956Z,21.48
2019-04-22T00:59:17.221Z,21.23
2019-04-22T01:01:52.578Z,21.60
2019-04-22T01:04:35.216Z,21.85
2019-04-22T01:07:09.260Z,20.40
2019-04-22T01:09:44.967Z,20.48
2019-04-22T01:12:24.735Z,21.45
2019-04-22T01:14:55.600Z,20.97
2019-04-22T01:17:35.896Z,20.85
2019-04-22T01:20:17.457Z,20.48
2019-04-22T01:22:47.272Z,21.02
2019-04-22T01:25:20.604Z,21.37
2019-04-22T01:27:48.619Z,21.40
2019-04-22T01:30:24.398Z,20.85
2019-04-22T01:32:51.051Z,21.12
2019-04-22T01:35:36.090Z,21.55
2019-04-22T01:38:13.671Z,21.70
2019-04-22T01:41:04.614Z,21.30
2019-04-22T01:43:40.897Z,21.82
2019-04-22T01:46:23.494Z,22.52
2019-04-22T01:48:54.275Z,22.58
2019-04-22T01:51:35.592Z,22.93
2019-04-22T01:54:05.236Z,23.25
2019-04-22T01:56:40.973Z,23.90
2019-04-22T01:59:12.872Z,23.92
2019-04-22T02:04:31.925Z,24.27
2019-04-22T02:09:45.621Z,25.88
2019-04-22T02:14:50.636Z,28.92
2019-04-22T02:17:31.668Z,33.92
2019-04-22T02:20:05.142Z,33.23
2019-04-22T02:23:43.100Z,32.67
2019-04-22T02:28:39.919Z,32.48
2019-04-22T02:31:25.879Z,33.50
2019-04-22T02:36:43.119Z,33.58
2019-04-22T02:44:26.321Z,31.60
2019-04-22T02:49:47.422Z,31.02
2019-04-22T02:52:14.557Z,30.12
2019-04-22T02:54:49.408Z,31.33
2019-04-22T02:57:30.086Z,31.87
2019-04-22T03:02:41.376Z,31.68
2019-04-22T03:07:55.895Z,30.62
2019-04-22T03:10:29.458Z,30.62
2019-04-22T03:13:01.005Z,29.80
2019-04-22T03:18:09.167Z,29.15
2019-04-22T03:20:50.046Z,30.72
2019-04-22T03:23:45.612Z,30.00
2019-04-22T03:28:37.164Z,29.37
2019-04-22T03:32:32.658Z,28.45
2019-04-22T03:35:20.159Z,28.75
2019-04-22T03:37:35.066Z,27.42
2019-04-22T03:42:27.434Z,27.30
2019-04-22T03:45:10.282Z,26.27
2019-04-22T03:53:01.438Z,25.48
2019-04-22T03:55:32.678Z,29.52
2019-04-22T03:58:01.251Z,27.87
2019-04-22T04:00:43.094Z,29.20
2019-04-22T04:03:11.655Z,29.42
2019-04-22T04:05:57.592Z,27.55
2019-04-22T04:13:39.576Z,29.02
2019-04-22T04:16:19.504Z,27.65
2019-04-22T04:24:24.115Z,27.45
2019-04-22T04:34:54.037Z,26.87
2019-04-22T04:37:22.933Z,26.87
2019-04-22T04:45:11.034Z,28.57
2019-04-22T04:55:24.013Z,41.13
2019-04-22T04:58:03.738Z,34.45
2019-04-22T05:03:10.546Z,31.35
2019-04-22T05:05:54.649Z,31.33
2019-04-22T05:08:30.648Z,30.02
2019-04-22T05:11:01.066Z,30.65
2019-04-22T05:13:39.666Z,28.73
2019-04-22T05:18:47.195Z,27.95
2019-04-22T05:21:17.999Z,26.75
2019-04-22T05:23:58.507Z,25.85
2019-04-22T05:26:32.799Z,25.20
2019-04-22T05:29:05.583Z,24.25
2019-04-22T05:31:37.243Z,25.40
2019-04-22T05:36:52.854Z,24.10
2019-04-22T05:39:33.952Z,22.95
2019-04-22T05:42:10.272Z,22.95
2019-04-22T05:44:48.030Z,23.30
2019-04-22T05:47:15.238Z,22.30
2019-04-22T05:49:49.340Z,22.05
2019-04-22T05:52:25.003Z,21.65
2019-04-22T05:55:10.471Z,20.92
2019-04-22T05:57:38.909Z,20.55
2019-04-22T06:00:25.591Z,19.77
2019-04-22T06:02:56.957Z,20.65
2019-04-22T06:05:32.038Z,19.82
2019-04-22T06:08:08.250Z,19.27
2019-04-22T06:10:50.407Z,19.52
2019-04-22T06:13:18.229Z,19.67
2019-04-22T06:15:53.126Z,19.02
2019-04-22T06:18:33.485Z,18.07
2019-04-22T06:21:11.274Z,17.77
2019-04-22T06:23:46.694Z,18.60
2019-04-22T06:29:06.679Z,17.67
2019-04-22T06:31:49.920Z,18.37
2019-04-22T06:36:54.204Z,16.35
2019-04-22T06:39:29.081Z,17.15
2019-04-22T06:42:01.032Z,16.77
2019-04-22T06:44:36.295Z,16.50
2019-04-22T06:47:25.242Z,16.48
2019-04-22T06:49:53.045Z,16.23
2019-04-22T06:52:22.657Z,16.42
2019-04-22T06:55:24.814Z,16.23
2019-04-22T06:57:36.374Z,16.62
2019-04-22T07:00:18.566Z,16.35
2019-04-22T07:05:27.534Z,16.00
2019-04-22T07:08:18.282Z,15.90
2019-04-22T07:10:47.812Z,15.43
2019-04-22T07:13:23.634Z,15.70
2019-04-22T07:16:00.428Z,14.93
2019-04-22T07:18:36.088Z,15.53
2019-04-22T07:21:10.422Z,21.07
2019-04-22T07:26:18.373Z,19.12
2019-04-22T07:28:56.527Z,19.02
2019-04-22T07:31:50.898Z,19.17
2019-04-22T07:34:17.856Z,18.52
2019-04-22T07:39:25.586Z,20.88
2019-04-22T07:41:58.616Z,19.52
2019-04-22T07:44:33.909Z,19.10
2019-04-22T07:47:13.785Z,19.60
2019-04-22T07:49:47.357Z,19.10
2019-04-22T07:52:24.562Z,18.75
2019-04-22T07:54:56.962Z,19.00
2019-04-22T07:57:32.481Z,19.67
2019-04-22T08:00:09.301Z,19.10
2019-04-22T08:02:53.635Z,18.50
2019-04-22T08:05:20.681Z,18.52
2019-04-22T08:08:05.279Z,18.73
2019-04-22T08:10:38.057Z,18.85
2019-04-22T08:13:11.888Z,18.35
2019-04-22T08:15:48.606Z,18.45
2019-04-22T08:21:02.756Z,18.17
2019-04-22T08:23:36.813Z,18.82
2019-04-22T08:26:13.464Z,19.37
2019-04-22T08:31:29.993Z,19.40
2019-04-22T08:34:05.002Z,19.17
2019-04-22T08:36:41.045Z,18.95
2019-04-22T08:39:14.116Z,18.52
2019-04-22T08:41:39.912Z,18.10
2019-04-22T08:44:49.635Z,18.73
2019-04-22T08:47:17.333Z,17.65
2019-04-22T08:49:46.501Z,17.67
2019-04-22T08:52:16.520Z,17.87
2019-04-22T08:54:53.663Z,17.87
2019-04-22T08:57:43.434Z,18.30
2019-04-22T09:00:02.811Z,17.35
2019-04-22T09:02:43.181Z,17.35
2019-04-22T09:05:22.547Z,18.45
2019-04-22T09:07:59.791Z,18.42
2019-04-22T09:10:36.255Z,17.82
2019-04-22T09:13:13.953Z,17.40
2019-04-22T09:15:49.100Z,17.57
2019-04-22T09:18:14.548Z,18.32
2019-04-22T09:20:59.906Z,17.35
2019-04-22T09:23:30.708Z,18.42
2019-04-22T09:26:05.092Z,18.17
2019-04-22T09:28:44.743Z,17.95
2019-04-22T09:31:18.987Z,18.82
2019-04-22T09:33:50.355Z,18.90
2019-04-22T09:36:33.991Z,18.82
2019-04-22T09:39:02.942Z,18.65
2019-04-22T09:41:41.290Z,18.50
2019-04-22T09:44:14.877Z,18.90
2019-04-22T09:46:53.728Z,18.45
2019-04-22T09:52:02.950Z,18.57
2019-04-22T09:54:49.691Z,18.90
2019-04-22T09:57:20.155Z,18.67
2019-04-22T10:00:00.595Z,18.62
2019-04-22T10:02:39.536Z,17.80
2019-04-22T10:05:08.667Z,18.35
2019-04-22T10:07:39.179Z,18.60
2019-04-22T10:13:12.800Z,17.87
2019-04-22T10:15:28.937Z,19.23
2019-04-22T10:18:02.941Z,18.12
2019-04-22T10:20:47.659Z,18.95
2019-04-22T10:23:20.028Z,18.12
2019-04-22T10:25:57.445Z,17.77
2019-04-22T10:28:36.849Z,18.55
2019-04-22T10:31:12.273Z,17.77
2019-04-22T10:33:36.284Z,18.42
2019-04-22T10:35:57.598Z,18.12
2019-04-22T10:38:32.577Z,18.25
2019-04-22T10:41:08.262Z,18.67
2019-04-22T10:43:43.328Z,18.02
2019-04-22T10:46:18.070Z,17.62
2019-04-22T10:48:52.774Z,18.23
2019-04-22T10:51:30.742Z,18.55
2019-04-22T10:54:05.310Z,17.65
2019-04-22T10:56:40.765Z,18.07
2019-04-22T10:59:16.504Z,18.20
2019-04-22T11:01:50.749Z,18.20
2019-04-22T11:04:26.114Z,17.12
2019-04-22T11:07:03.912Z,17.35
2019-04-22T11:09:50.379Z,17.30
2019-04-22T11:12:17.658Z,16.62
2019-04-22T11:14:49.770Z,16.32
2019-04-22T11:17:24.042Z,15.98
2019-04-22T11:19:59.689Z,16.90
2019-04-22T11:22:36.905Z,16.40
2019-04-22T11:25:11.834Z,16.52
2019-04-22T11:27:47.191Z,16.45
2019-04-22T11:30:25.931Z,17.10
2019-04-22T11:33:00.438Z,15.23
2019-04-22T11:35:35.152Z,15.95
2019-04-22T11:38:10.775Z,15.80
2019-04-22T11:40:49.772Z,15.50
2019-04-22T11:43:21.950Z,14.85
2019-04-22T11:45:57.532Z,15.43
2019-04-22T11:48:31.899Z,14.83
2019-04-22T11:51:06.290Z,15.30
2019-04-22T11:53:40.977Z,15.60
2019-04-22T11:56:16.641Z,15.10
2019-04-22T11:58:51.250Z,14.90
2019-04-22T12:01:26.675Z,15.43
2019-04-22T12:04:02.147Z,14.70
2019-04-22T12:06:37.875Z,14.28
2019-04-22T12:09:15.451Z,13.85
2019-04-22T12:11:49.610Z,14.50
2019-04-22T12:14:24.053Z,14.75
2019-04-22T12:16:59.489Z,14.63
2019-04-22T12:19:35.252Z,14.65
2019-04-22T12:22:11.071Z,14.53
2019-04-22T12:24:46.112Z,14.65
2019-04-22T12:27:22.097Z,14.13
2019-04-22T12:29:56.755Z,14.05
2019-04-22T12:32:31.637Z,14.95
2019-04-22T12:35:07.363Z,14.25
2019-04-22T12:37:51.015Z,15.25
2019-04-22T12:40:30.140Z,14.10
2019-04-22T12:42:55.415Z,14.55
2019-04-22T12:45:30.136Z,14.33
2019-04-22T12:48:04.538Z,14.28
2019-04-22T12:50:43.449Z,13.90
2019-04-22T12:53:18.802Z,14.03
2019-04-22T12:55:54.912Z,13.75
2019-04-22T12:58:27.711Z,13.90
2019-04-22T13:01:03.278Z,14.68
2019-04-22T13:03:38.304Z,14.20
2019-04-22T13:06:14.066Z,14.78
2019-04-22T13:08:49.689Z,15.38
2019-04-22T13:11:30.463Z,15.40
2019-04-22T13:14:00.991Z,14.60
2019-04-22T13:16:35.945Z,15.18
2019-04-22T13:19:13.146Z,16.62
2019-04-22T13:21:48.948Z,18.17
2019-04-22T13:24:23.761Z,19.57
2019-04-22T13:26:59.074Z,19.45
2019-04-22T13:29:34.946Z,19.98
2019-04-22T13:32:10.822Z,19.35
2019-04-22T13:34:49.788Z,19.62
2019-04-22T13:37:23.119Z,18.17
2019-04-22T13:40:00.990Z,18.23
2019-04-22T13:42:37.215Z,19.50
2019-04-22T13:45:13.898Z,19.45
2019-04-22T13:48:08.695Z,19.37
2019-04-22T13:51:01.362Z,18.80
2019-04-22T13:56:05.580Z,18.62
2019-04-22T13:58:31.344Z,18.07
2019-04-22T14:00:52.316Z,18.25
2019-04-22T14:03:44.817Z,17.30
2019-04-22T14:06:20.575Z,17.17
2019-04-22T14:08:55.664Z,17.40
2019-04-22T14:11:36.716Z,17.55
2019-04-22T14:14:06.975Z,18.05
2019-04-22T14:16:42.467Z,17.12
2019-04-22T14:19:18.397Z,16.40
2019-04-22T14:21:53.804Z,16.57
2019-04-22T14:24:28.306Z,17.62
2019-04-22T14:27:19.655Z,16.37
2019-04-22T14:29:39.773Z,16.02
2019-04-22T14:34:51.151Z,16.67
2019-04-22T14:37:25.600Z,16.85
2019-04-22T14:40:00.670Z,17.32
2019-04-22T14:42:56.372Z,15.72
2019-04-22T14:44:42.434Z,16.55
2019-04-22T14:45:42.572Z,16.42
2019-04-22T14:48:10.981Z,16.32
2019-04-22T14:50:46.938Z,16.82
2019-04-22T14:53:21.044Z,16.12
2019-04-22T14:55:38.206Z,16.95
2019-04-22T14:58:13.030Z,17.15
2019-04-22T15:00:49.301Z,16.17
2019-04-22T15:03:23.903Z,16.23
2019-04-22T15:05:59.900Z,16.15
2019-04-22T15:08:35.149Z,16.17
2019-04-22T15:11:10.970Z,15.95
2019-04-22T15:13:45.381Z,16.60
2019-04-22T15:16:42.314Z,16.77
2019-04-22T15:19:33.975Z,15.80
2019-04-22T15:22:08.493Z,15.85
2019-04-22T15:24:43.094Z,18.20
2019-04-22T15:27:18.432Z,18.35
2019-04-22T15:29:53.726Z,18.37
2019-04-22T15:32:29.539Z,17.27
2019-04-22T15:35:04.975Z,17.37
2019-04-22T15:37:39.507Z,17.12
2019-04-22T15:40:13.904Z,17.55
2019-04-22T15:42:48.911Z,17.52
2019-04-22T15:45:24.293Z,17.27
2019-04-22T15:47:59.873Z,17.35
2019-04-22T15:50:35.039Z,18.30
2019-04-22T15:53:09.852Z,17.87
2019-04-22T15:55:44.927Z,18.15
2019-04-22T15:58:19.783Z,18.07
2019-04-22T16:01:05.927Z,17.67
2019-04-22T16:03:30.456Z,17.55
2019-04-22T16:06:06.080Z,17.95
2019-04-22T16:08:41.124Z,18.92
2019-04-22T16:11:15.904Z,18.30
2019-04-22T16:13:50.622Z,17.87
2019-04-22T16:16:25.018Z,17.35
2019-04-22T16:19:00.569Z,17.60
2019-04-22T16:21:45.184Z,17.77
2019-04-22T16:24:34.039Z,16.93
2019-04-22T16:27:14.197Z,18.23
2019-04-22T16:29:49.633Z,18.23
2019-04-22T16:32:25.414Z,18.95
2019-04-22T16:35:00.899Z,19.00
2019-04-22T16:37:36.869Z,19.65
2019-04-22T16:40:12.569Z,20.43
2019-04-22T16:42:54.545Z,20.97
2019-04-22T16:45:23.070Z,20.70
2019-04-22T16:47:57.961Z,22.70
2019-04-22T16:50:32.832Z,21.35
2019-04-22T16:53:08.316Z,22.17
2019-04-22T16:55:44.573Z,22.10
2019-04-22T16:58:19.159Z,23.10
2019-04-22T17:00:54.654Z,23.12
2019-04-22T17:03:56.794Z,22.50
2019-04-22T17:06:35.314Z,23.27
2019-04-22T17:09:14.206Z,22.90
2019-04-22T17:11:48.025Z,22.65
2019-04-22T17:14:29.086Z,22.22
2019-04-22T17:16:58.069Z,22.00
2019-04-22T17:19:33.311Z,21.75
2019-04-22T17:22:07.969Z,21.87
2019-04-22T17:24:43.719Z,20.77
2019-04-22T17:27:18.356Z,21.45
2019-04-22T17:29:54.535Z,21.62
2019-04-22T17:32:29.077Z,22.48
2019-04-22T17:35:04.093Z,22.50
2019-04-22T17:37:39.636Z,22.37
2019-04-22T17:40:32.975Z,20.95
2019-04-22T17:43:26.551Z,21.97
2019-04-22T17:46:14.013Z,22.45
2019-04-22T17:49:10.811Z,21.85
2019-04-22T17:51:45.649Z,21.37
2019-04-22T17:54:21.411Z,21.75
2019-04-22T17:56:54.339Z,21.17
2019-04-22T17:59:32.856Z,21.05
2019-04-22T18:02:05.732Z,22.02
2019-04-22T18:04:29.035Z,22.90
2019-04-22T18:07:24.038Z,21.60
2019-04-22T18:10:23.320Z,23.12
2019-04-22T18:12:40.098Z,22.35
2019-04-22T18:15:09.979Z,22.75
2019-04-22T18:17:46.350Z,21.68
2019-04-22T18:20:17.500Z,21.37
2019-04-22T18:22:50.315Z,21.65
2019-04-22T18:25:29.550Z,22.07
2019-04-22T18:30:37.430Z,21.45
2019-04-22T18:33:24.264Z,20.92
2019-04-22T18:35:54.027Z,21.10
2019-04-22T18:41:09.019Z,21.05
2019-04-22T18:43:47.906Z,20.17
2019-04-22T18:46:21.305Z,21.02
2019-04-22T18:49:00.561Z,20.17
2019-04-22T18:51:42.614Z,19.67
2019-04-22T18:54:33.008Z,20.80
2019-04-22T18:57:07.971Z,20.92
2019-04-22T18:59:28.889Z,21.10
2019-04-22T19:26:55.810Z,21.07
2019-04-22T19:29:12.263Z,20.68
2019-04-22T19:31:52.736Z,19.92
2019-04-22T19:34:28.440Z,20.23
2019-04-22T19:37:02.101Z,20.27
2019-04-22T19:39:31.075Z,19.52
2019-04-22T19:42:16.681Z,19.55
2019-04-22T19:44:50.804Z,20.12
2019-04-22T19:47:30.339Z,19.92
2019-04-22T19:52:40.211Z,20.48
2019-04-22T19:55:21.380Z,20.17
2019-04-22T19:57:47.861Z,19.65
2019-04-22T20:00:32.548Z,20.02
2019-04-22T20:03:53.015Z,19.75
2019-04-22T20:06:33.651Z,18.70
2019-04-22T20:09:13.617Z,19.50
2019-04-22T20:11:44.912Z,19.50
2019-04-22T20:14:24.610Z,19.85
2019-04-22T20:16:54.716Z,19.50
2019-04-22T20:22:08.794Z,19.17
2019-04-22T20:24:34.011Z,19.32
2019-04-22T20:27:25.213Z,19.60
2019-04-22T20:29:58.146Z,18.50
2019-04-22T20:32:31.211Z,18.67
2019-04-22T20:35:15.212Z,19.07
2019-04-22T20:37:50.936Z,18.50
2019-04-22T20:40:25.338Z,18.60
2019-04-22T20:43:22.027Z,18.98
2019-04-22T20:45:39.979Z,18.02
2019-04-22T20:48:05.017Z,18.20
2019-04-22T20:50:48.183Z,18.90
2019-04-22T20:53:32.295Z,19.15
2019-04-22T20:56:00.564Z,19.48
2019-04-22T20:58:40.673Z,18.82
2019-04-22T21:01:05.170Z,18.48
2019-04-22T21:03:39.240Z,19.55
2019-04-22T21:06:23.287Z,19.30
2019-04-22T21:09:01.048Z,19.60
2019-04-22T21:11:34.547Z,19.92
2019-04-22T21:14:11.851Z,19.92
2019-04-22T21:16:53.253Z,19.17
2019-04-22T21:19:38.193Z,19.48
2019-04-22T21:22:03.260Z,18.80
2019-04-22T21:24:36.141Z,19.57
2019-04-22T21:27:18.278Z,19.87
2019-04-22T21:29:39.854Z,19.75
2019-04-22T21:32:25.229Z,20.80
2019-04-22T21:35:05.713Z,21.23
2019-04-22T21:37:43.130Z,21.27
2019-04-22T21:40:18.620Z,21.30
2019-04-22T21:42:58.241Z,21.02
2019-04-22T21:45:21.665Z,21.95
2019-04-22T21:48:15.503Z,20.55
2019-04-22T21:50:52.519Z,21.40
2019-04-22T21:53:22.763Z,20.75
2019-04-22T21:56:00.356Z,21.27
2019-04-22T21:58:56.014Z,20.37
2019-04-22T22:01:49.996Z,21.68
2019-04-22T22:04:17.466Z,22.80
2019-04-22T22:06:42.472Z,22.42
2019-04-22T22:09:31.257Z,22.58
2019-04-22T22:12:05.262Z,21.82
2019-04-22T22:14:40.105Z,23.35
2019-04-22T22:17:17.304Z,22.60
2019-04-22T22:19:54.416Z,23.35
2019-04-22T22:25:07.785Z,23.32
2019-04-22T22:27:41.669Z,23.60
2019-04-22T22:30:40.104Z,23.85
2019-04-22T22:33:01.356Z,23.98
2019-04-22T22:35:31.567Z,23.55
2019-04-22T22:38:10.829Z,24.20
2019-04-22T22:40:28.047Z,24.12
2019-04-22T22:43:05.423Z,23.70
2019-04-22T22:45:44.982Z,23.42
2019-04-22T22:48:38.728Z,23.35
2019-04-22T22:51:07.632Z,24.60
2019-04-22T22:53:51.296Z,24.02
2019-04-22T22:56:35.597Z,24.52
2019-04-22T22:59:00.264Z,24.27
2019-04-22T23:01:36.065Z,23.90
2019-04-22T23:04:16.264Z,25.00
2019-04-22T23:06:53.336Z,24.07
2019-04-22T23:09:22.993Z,23.90
2019-04-22T23:12:24.784Z,24.45
2019-04-22T23:14:38.295Z,24.25
2019-04-22T23:16:57.926Z,24.30
2019-04-22T23:19:26.160Z,25.23
2019-04-22T23:22:06.426Z,24.30
2019-04-22T23:25:00.209Z,25.25
2019-04-22T23:27:40.168Z,25.55
2019-04-22T23:30:23.953Z,25.68
2019-04-22T23:33:26.513Z,25.43
2019-04-22T23:35:57.567Z,26.30
2019-04-22T23:38:47.664Z,25.17
2019-04-22T23:41:48.985Z,26.85
2019-04-22T23:46:48.400Z,26.25
2019-04-22T23:49:25.103Z,26.90
2019-04-22T23:52:11.435Z,26.50
2019-04-22T23:54:51.742Z,27.45
2019-04-22T23:57:27.607Z,26.62
